Pagrindinis puslapis
METAR-TAF:

METAR-TAF

Oro uostai :

Trangas, Tailandas

platuma: 07-31N, ilguma: 099-37E, Aukštis: 14 m

Dabartinis oras

Ataskaita buvo paskelbta 1 valandą ir 7 minutes, ne 12:00 UTC
Vėjas 4 kt iš Šiaurės/Šiaurės Vakarų
Temperatūra 25°C
Drėgmė 94%
Slėgis 1009 hPa
Matomumas 10 km arba daugiau
Mažai debesys ne aukštis 2000 ft

METAR: VTST 151200Z 34004KT 9999 FEW020 25/24 Q1009 NOSIG

Laikas: 20:07 (13:07 UTC)

Prognozė

Ataskaita buvo paskelbta 2 valandos ir 7 minutes, ne 11:00 UTC
Prognozė galioja nuo 15 metu 12 UTC su 16 metu 12 UTC
Vėjas kt iš Šiaurės
Matomumas 10 km arba daugiau
Mažai debesys ne aukštis 2000 ft
Laikinai
nuo 15 metu 12 UTC su 15 metu 16 UTC
Vėjas 15 kt iš Vakarų su gūsio iki 25 kt
Matomumas: 5000 m
Mažai debesys ne aukštis 1800 ft, Liūtiniai kamuoliniai debesys.
Išsisklaidę debesys ne aukštis 2000 ft
Su prošvaistėmis ne aukštis 10000 ft
perkūnija, lietus

TAF: VTST 151100Z 1512/1612 00000KT 9999 FEW020 TEMPO 1512/1516 26015G25KT 5000 TSRA FEW018CB SCT020 BKN100

Orai ataskaitas ir orų prognozės (METAR, TAF).

turimą stotys yra geltonos ir raudonos taškus žemėlapyje.

Perkelti pele per norėdami pamatyti stoties vardą.

Tada spustelėkite, norėdami matyti oro stebėjimo ir prognozės.

Norėdami pakeisti žemėlapį: spustelėkite ant žalios mygtukų su juodo kryžiaus žemyn,; žalią mygtuką su brūkšneliu, jei norite nutolinti; arba žalių rodyklių gretimoms žemėlapius.


METAR-TAF: